sensor_id;sensor_type;location;lat;lon;timestamp;temperature;humidity
72772;SHT30;60894;42.544;1.516;2023-09-18T00:02:13;15.91;76.96
72772;SHT30;60894;42.544;1.516;2023-09-18T00:04:40;15.98;76.74
72772;SHT30;60894;42.544;1.516;2023-09-18T00:07:07;15.80;76.88
72772;SHT30;60894;42.544;1.516;2023-09-18T00:09:37;15.88;77.51
72772;SHT30;60894;42.544;1.516;2023-09-18T00:12:05;15.91;77.32
72772;SHT30;60894;42.544;1.516;2023-09-18T00:14:32;15.84;77.93
72772;SHT30;60894;42.544;1.516;2023-09-18T00:16:59;15.81;78.60
72772;SHT30;60894;42.544;1.516;2023-09-18T00:19:26;15.64;79.22
72772;SHT30;60894;42.544;1.516;2023-09-18T00:21:53;15.49;79.77
72772;SHT30;60894;42.544;1.516;2023-09-18T00:24:20;15.49;80.12
72772;SHT30;60894;42.544;1.516;2023-09-18T00:26:49;15.49;80.01
72772;SHT30;60894;42.544;1.516;2023-09-18T00:29:18;15.49;80.58
72772;SHT30;60894;42.544;1.516;2023-09-18T00:31:45;16.24;73.66
72772;SHT30;60894;42.544;1.516;2023-09-18T00:34:12;16.39;73.02
72772;SHT30;60894;42.544;1.516;2023-09-18T00:36:39;16.32;74.15
72772;SHT30;60894;42.544;1.516;2023-09-18T00:39:06;16.38;72.79
72772;SHT30;60894;42.544;1.516;2023-09-18T00:41:33;16.35;72.74
72772;SHT30;60894;42.544;1.516;2023-09-18T00:44:02;16.35;72.69
72772;SHT30;60894;42.544;1.516;2023-09-18T00:46:29;16.33;72.55
72772;SHT30;60894;42.544;1.516;2023-09-18T00:48:57;16.29;72.96
72772;SHT30;60894;42.544;1.516;2023-09-18T00:51:24;16.29;73.61
72772;SHT30;60894;42.544;1.516;2023-09-18T00:53:51;16.38;73.42
72772;SHT30;60894;42.544;1.516;2023-09-18T00:56:18;16.41;72.65
72772;SHT30;60894;42.544;1.516;2023-09-18T00:58:46;16.36;73.07
72772;SHT30;60894;42.544;1.516;2023-09-18T01:01:16;16.29;73.44
72772;SHT30;60894;42.544;1.516;2023-09-18T01:03:48;16.24;73.93
72772;SHT30;60894;42.544;1.516;2023-09-18T01:06:16;16.24;73.63
72772;SHT30;60894;42.544;1.516;2023-09-18T01:08:45;16.30;73.03
72772;SHT30;60894;42.544;1.516;2023-09-18T01:11:20;16.28;74.21
72772;SHT30;60894;42.544;1.516;2023-09-18T01:13:54;16.17;77.10
72772;SHT30;60894;42.544;1.516;2023-09-18T01:16:27;16.12;77.31
72772;SHT30;60894;42.544;1.516;2023-09-18T01:18:57;16.02;77.18
72772;SHT30;60894;42.544;1.516;2023-09-18T01:21:24;15.91;78.14
72772;SHT30;60894;42.544;1.516;2023-09-18T01:23:52;15.81;78.87
72772;SHT30;60894;42.544;1.516;2023-09-18T01:26:19;15.61;79.46
72772;SHT30;60894;42.544;1.516;2023-09-18T01:28:46;15.53;79.38
72772;SHT30;60894;42.544;1.516;2023-09-18T01:31:13;15.54;78.93
72772;SHT30;60894;42.544;1.516;2023-09-18T01:33:41;15.42;79.73
72772;SHT30;60894;42.544;1.516;2023-09-18T01:36:11;15.50;79.63
72772;SHT30;60894;42.544;1.516;2023-09-18T01:38:38;15.53;79.02
72772;SHT30;60894;42.544;1.516;2023-09-18T01:41:06;15.66;78.11
72772;SHT30;60894;42.544;1.516;2023-09-18T01:43:34;15.68;78.69
72772;SHT30;60894;42.544;1.516;2023-09-18T01:46:01;15.60;79.39
72772;SHT30;60894;42.544;1.516;2023-09-18T01:48:29;15.54;79.72
72772;SHT30;60894;42.544;1.516;2023-09-18T01:50:56;15.36;80.04
72772;SHT30;60894;42.544;1.516;2023-09-18T01:53:23;15.30;80.84
72772;SHT30;60894;42.544;1.516;2023-09-18T01:55:51;15.29;80.99
72772;SHT30;60894;42.544;1.516;2023-09-18T01:58:19;15.25;80.83
72772;SHT30;60894;42.544;1.516;2023-09-18T02:00:46;15.27;81.00
72772;SHT30;60894;42.544;1.516;2023-09-18T02:03:13;15.27;81.49
72772;SHT30;60894;42.544;1.516;2023-09-18T02:05:43;15.42;80.92
72772;SHT30;60894;42.544;1.516;2023-09-18T02:08:10;15.47;81.09
72772;SHT30;60894;42.544;1.516;2023-09-18T02:10:37;15.46;81.52
72772;SHT30;60894;42.544;1.516;2023-09-18T02:13:04;15.36;81.61
72772;SHT30;60894;42.544;1.516;2023-09-18T02:15:32;15.33;82.03
72772;SHT30;60894;42.544;1.516;2023-09-18T02:18:00;15.40;81.93
72772;SHT30;60894;42.544;1.516;2023-09-18T02:20:27;15.36;82.34
72772;SHT30;60894;42.544;1.516;2023-09-18T02:22:54;15.30;82.56
72772;SHT30;60894;42.544;1.516;2023-09-18T02:25:21;15.35;82.65
72772;SHT30;60894;42.544;1.516;2023-09-18T02:27:48;15.23;83.12
72772;SHT30;60894;42.544;1.516;2023-09-18T02:30:17;15.15;83.27
72772;SHT30;60894;42.544;1.516;2023-09-18T02:32:46;15.19;82.66
72772;SHT30;60894;42.544;1.516;2023-09-18T02:35:13;15.35;82.31
72772;SHT30;60894;42.544;1.516;2023-09-18T02:37:40;15.63;81.46
72772;SHT30;60894;42.544;1.516;2023-09-18T02:40:08;15.80;80.43
72772;SHT30;60894;42.544;1.516;2023-09-18T02:42:35;15.94;80.12
72772;SHT30;60894;42.544;1.516;2023-09-18T02:45:02;16.05;79.53
72772;SHT30;60894;42.544;1.516;2023-09-18T02:47:29;16.21;78.90
72772;SHT30;60894;42.544;1.516;2023-09-18T02:49:57;16.08;78.85
72772;SHT30;60894;42.544;1.516;2023-09-18T02:52:24;15.78;79.96
72772;SHT30;60894;42.544;1.516;2023-09-18T02:54:51;15.57;80.71
72772;SHT30;60894;42.544;1.516;2023-09-18T02:57:18;15.32;81.74
72772;SHT30;60894;42.544;1.516;2023-09-18T02:59:45;15.32;81.83
72772;SHT30;60894;42.544;1.516;2023-09-18T03:02:12;15.12;82.68
72772;SHT30;60894;42.544;1.516;2023-09-18T03:04:39;15.05;83.07
72772;SHT30;60894;42.544;1.516;2023-09-18T03:07:07;15.05;83.05
72772;SHT30;60894;42.544;1.516;2023-09-18T03:09:34;15.18;82.66
72772;SHT30;60894;42.544;1.516;2023-09-18T03:12:01;15.22;81.97
72772;SHT30;60894;42.544;1.516;2023-09-18T03:14:28;15.08;82.33
72772;SHT30;60894;42.544;1.516;2023-09-18T03:16:55;15.05;82.61
72772;SHT30;60894;42.544;1.516;2023-09-18T03:19:22;15.03;82.75
72772;SHT30;60894;42.544;1.516;2023-09-18T03:21:50;14.98;83.22
72772;SHT30;60894;42.544;1.516;2023-09-18T03:24:18;14.95;83.05
72772;SHT30;60894;42.544;1.516;2023-09-18T03:26:45;14.86;83.59
72772;SHT30;60894;42.544;1.516;2023-09-18T03:29:12;14.84;83.17
72772;SHT30;60894;42.544;1.516;2023-09-18T03:31:39;14.92;82.22
72772;SHT30;60894;42.544;1.516;2023-09-18T03:34:06;14.81;82.15
72772;SHT30;60894;42.544;1.516;2023-09-18T03:36:33;14.92;81.92
72772;SHT30;60894;42.544;1.516;2023-09-18T03:39:00;14.84;81.93
72772;SHT30;60894;42.544;1.516;2023-09-18T03:41:29;14.77;81.99
72772;SHT30;60894;42.544;1.516;2023-09-18T03:43:59;14.89;81.85
72772;SHT30;60894;42.544;1.516;2023-09-18T03:46:26;14.84;82.36
72772;SHT30;60894;42.544;1.516;2023-09-18T03:48:53;14.72;82.87
72772;SHT30;60894;42.544;1.516;2023-09-18T03:51:20;14.81;82.78
72772;SHT30;60894;42.544;1.516;2023-09-18T03:53:47;14.78;82.86
72772;SHT30;60894;42.544;1.516;2023-09-18T03:56:14;14.71;83.09
72772;SHT30;60894;42.544;1.516;2023-09-18T03:58:42;14.91;81.89
72772;SHT30;60894;42.544;1.516;2023-09-18T04:01:10;14.81;81.80
72772;SHT30;60894;42.544;1.516;2023-09-18T04:03:37;14.74;82.30
72772;SHT30;60894;42.544;1.516;2023-09-18T04:06:04;14.68;82.96
72772;SHT30;60894;42.544;1.516;2023-09-18T04:08:32;14.67;83.11
72772;SHT30;60894;42.544;1.516;2023-09-18T04:10:59;14.68;83.02
72772;SHT30;60894;42.544;1.516;2023-09-18T04:13:26;14.71;82.73
72772;SHT30;60894;42.544;1.516;2023-09-18T04:15:54;14.65;83.04
72772;SHT30;60894;42.544;1.516;2023-09-18T04:18:22;14.63;83.49
72772;SHT30;60894;42.544;1.516;2023-09-18T04:20:49;14.60;82.67
72772;SHT30;60894;42.544;1.516;2023-09-18T04:23:19;14.60;83.07
72772;SHT30;60894;42.544;1.516;2023-09-18T04:25:47;14.42;83.98
72772;SHT30;60894;42.544;1.516;2023-09-18T04:30:41;14.54;82.63
72772;SHT30;60894;42.544;1.516;2023-09-18T04:33:10;14.40;83.11
72772;SHT30;60894;42.544;1.516;2023-09-18T04:35:38;14.45;82.90
72772;SHT30;60894;42.544;1.516;2023-09-18T04:38:06;14.45;83.08
72772;SHT30;60894;42.544;1.516;2023-09-18T04:40:34;14.55;82.54
72772;SHT30;60894;42.544;1.516;2023-09-18T04:43:01;14.45;82.37
72772;SHT30;60894;42.544;1.516;2023-09-18T04:45:30;14.44;82.75
72772;SHT30;60894;42.544;1.516;2023-09-18T04:47:57;14.48;83.06
72772;SHT30;60894;42.544;1.516;2023-09-18T04:50:25;14.51;82.78
72772;SHT30;60894;42.544;1.516;2023-09-18T04:52:52;14.58;82.13
72772;SHT30;60894;42.544;1.516;2023-09-18T04:55:20;14.36;82.62
72772;SHT30;60894;42.544;1.516;2023-09-18T04:57:47;14.27;83.41
72772;SHT30;60894;42.544;1.516;2023-09-18T05:00:16;14.33;83.77
72772;SHT30;60894;42.544;1.516;2023-09-18T05:02:43;14.38;83.64
72772;SHT30;60894;42.544;1.516;2023-09-18T05:05:10;14.40;82.73
72772;SHT30;60894;42.544;1.516;2023-09-18T05:07:38;14.33;83.02
72772;SHT30;60894;42.544;1.516;2023-09-18T05:10:06;14.37;82.68
72772;SHT30;60894;42.544;1.516;2023-09-18T05:12:33;14.33;82.62
72772;SHT30;60894;42.544;1.516;2023-09-18T05:15:00;14.28;82.64
72772;SHT30;60894;42.544;1.516;2023-09-18T05:17:40;14.21;84.18
72772;SHT30;60894;42.544;1.516;2023-09-18T05:20:10;14.13;84.14
72772;SHT30;60894;42.544;1.516;2023-09-18T05:22:40;14.13;84.29
72772;SHT30;60894;42.544;1.516;2023-09-18T05:25:08;14.18;83.81
72772;SHT30;60894;42.544;1.516;2023-09-18T05:27:35;14.16;83.88
72772;SHT30;60894;42.544;1.516;2023-09-18T05:30:10;14.14;83.65
72772;SHT30;60894;42.544;1.516;2023-09-18T05:32:38;14.09;83.49
72772;SHT30;60894;42.544;1.516;2023-09-18T05:35:06;14.00;83.43
72772;SHT30;60894;42.544;1.516;2023-09-18T05:37:35;14.03;83.47
72772;SHT30;60894;42.544;1.516;2023-09-18T05:40:05;14.03;83.25
72772;SHT30;60894;42.544;1.516;2023-09-18T05:42:34;14.05;83.00
72772;SHT30;60894;42.544;1.516;2023-09-18T05:45:02;13.91;83.11
72772;SHT30;60894;42.544;1.516;2023-09-18T05:47:29;13.93;82.98
72772;SHT30;60894;42.544;1.516;2023-09-18T05:49:57;13.96;82.94
72772;SHT30;60894;42.544;1.516;2023-09-18T05:52:24;13.87;82.91
72772;SHT30;60894;42.544;1.516;2023-09-18T05:54:51;13.87;83.03
72772;SHT30;60894;42.544;1.516;2023-09-18T05:57:19;13.89;83.01
72772;SHT30;60894;42.544;1.516;2023-09-18T05:59:46;14.03;82.51
72772;SHT30;60894;42.544;1.516;2023-09-18T06:02:13;14.03;81.91
72772;SHT30;60894;42.544;1.516;2023-09-18T06:04:42;13.99;81.45
72772;SHT30;60894;42.544;1.516;2023-09-18T06:07:08;13.91;81.91
72772;SHT30;60894;42.544;1.516;2023-09-18T06:09:35;13.90;82.67
72772;SHT30;60894;42.544;1.516;2023-09-18T06:12:03;13.87;82.73
72772;SHT30;60894;42.544;1.516;2023-09-18T06:14:32;13.87;82.18
72772;SHT30;60894;42.544;1.516;2023-09-18T06:17:00;13.77;81.86
72772;SHT30;60894;42.544;1.516;2023-09-18T06:19:27;13.66;82.46
72772;SHT30;60894;42.544;1.516;2023-09-18T06:21:56;13.59;82.82
72772;SHT30;60894;42.544;1.516;2023-09-18T06:24:23;13.55;82.93
72772;SHT30;60894;42.544;1.516;2023-09-18T06:26:56;13.58;82.94
72772;SHT30;60894;42.544;1.516;2023-09-18T06:29:31;13.54;82.84
72772;SHT30;60894;42.544;1.516;2023-09-18T06:32:00;13.54;82.58
72772;SHT30;60894;42.544;1.516;2023-09-18T06:34:27;13.58;82.98
72772;SHT30;60894;42.544;1.516;2023-09-18T06:36:54;13.55;83.66
72772;SHT30;60894;42.544;1.516;2023-09-18T06:39:21;13.59;83.00
72772;SHT30;60894;42.544;1.516;2023-09-18T06:41:49;13.67;82.15
72772;SHT30;60894;42.544;1.516;2023-09-18T06:44:16;13.58;82.43
72772;SHT30;60894;42.544;1.516;2023-09-18T06:46:43;13.59;82.73
72772;SHT30;60894;42.544;1.516;2023-09-18T06:49:11;13.63;82.67
72772;SHT30;60894;42.544;1.516;2023-09-18T06:51:38;13.72;82.16
72772;SHT30;60894;42.544;1.516;2023-09-18T06:54:05;13.67;81.71
72772;SHT30;60894;42.544;1.516;2023-09-18T06:56:32;13.73;82.06
72772;SHT30;60894;42.544;1.516;2023-09-18T06:58:59;13.75;82.88
72772;SHT30;60894;42.544;1.516;2023-09-18T07:01:25;13.85;81.55
72772;SHT30;60894;42.544;1.516;2023-09-18T07:03:53;13.90;81.65
72772;SHT30;60894;42.544;1.516;2023-09-18T07:06:23;13.90;82.83
72772;SHT30;60894;42.544;1.516;2023-09-18T07:08:50;14.05;83.25
72772;SHT30;60894;42.544;1.516;2023-09-18T07:11:17;14.26;82.40
72772;SHT30;60894;42.544;1.516;2023-09-18T07:13:44;14.37;82.27
72772;SHT30;60894;42.544;1.516;2023-09-18T07:16:11;14.31;82.30
72772;SHT30;60894;42.544;1.516;2023-09-18T07:18:38;14.24;82.40
72772;SHT30;60894;42.544;1.516;2023-09-18T07:21:05;14.26;82.56
72772;SHT30;60894;42.544;1.516;2023-09-18T07:23:34;14.13;82.50
72772;SHT30;60894;42.544;1.516;2023-09-18T07:26:02;14.34;82.28
72772;SHT30;60894;42.544;1.516;2023-09-18T07:28:29;14.38;82.43
72772;SHT30;60894;42.544;1.516;2023-09-18T07:30:56;14.40;82.09
72772;SHT30;60894;42.544;1.516;2023-09-18T07:33:23;14.49;81.87
72772;SHT30;60894;42.544;1.516;2023-09-18T07:35:50;14.52;81.90
72772;SHT30;60894;42.544;1.516;2023-09-18T07:38:17;14.63;81.21
72772;SHT30;60894;42.544;1.516;2023-09-18T07:40:46;14.68;81.35
72772;SHT30;60894;42.544;1.516;2023-09-18T07:43:13;14.71;81.32
72772;SHT30;60894;42.544;1.516;2023-09-18T07:45:40;14.79;81.03
72772;SHT30;60894;42.544;1.516;2023-09-18T07:48:07;14.91;80.68
72772;SHT30;60894;42.544;1.516;2023-09-18T07:50:34;15.12;79.67
72772;SHT30;60894;42.544;1.516;2023-09-18T07:53:01;15.25;79.11
72772;SHT30;60894;42.544;1.516;2023-09-18T07:55:28;15.22;79.20
72772;SHT30;60894;42.544;1.516;2023-09-18T07:57:58;15.22;79.25
72772;SHT30;60894;42.544;1.516;2023-09-18T08:00:25;15.32;79.03
72772;SHT30;60894;42.544;1.516;2023-09-18T08:02:54;15.46;78.51
72772;SHT30;60894;42.544;1.516;2023-09-18T08:05:24;15.50;78.28
72772;SHT30;60894;42.544;1.516;2023-09-18T08:07:53;15.53;77.49
72772;SHT30;60894;42.544;1.516;2023-09-18T08:10:21;15.56;77.30
72772;SHT30;60894;42.544;1.516;2023-09-18T08:12:48;15.63;75.42
72772;SHT30;60894;42.544;1.516;2023-09-18T08:15:19;15.81;74.98
72772;SHT30;60894;42.544;1.516;2023-09-18T08:17:46;15.88;73.93
72772;SHT30;60894;42.544;1.516;2023-09-18T08:20:14;16.05;72.85
72772;SHT30;60894;42.544;1.516;2023-09-18T08:22:42;16.12;72.14
72772;SHT30;60894;42.544;1.516;2023-09-18T08:25:09;16.24;71.58
72772;SHT30;60894;42.544;1.516;2023-09-18T08:27:37;16.44;71.13
72772;SHT30;60894;42.544;1.516;2023-09-18T08:30:08;16.62;68.83
72772;SHT30;60894;42.544;1.516;2023-09-18T08:32:37;16.76;66.80
72772;SHT30;60894;42.544;1.516;2023-09-18T08:35:05;16.79;67.01
72772;SHT30;60894;42.544;1.516;2023-09-18T08:37:32;16.97;67.06
72772;SHT30;60894;42.544;1.516;2023-09-18T08:39:59;17.02;66.42
72772;SHT30;60894;42.544;1.516;2023-09-18T08:42:35;17.04;64.49
72772;SHT30;60894;42.544;1.516;2023-09-18T08:45:07;17.10;64.30
72772;SHT30;60894;42.544;1.516;2023-09-18T08:47:36;17.18;64.32
72772;SHT30;60894;42.544;1.516;2023-09-18T08:50:05;17.27;62.99
72772;SHT30;60894;42.544;1.516;2023-09-18T08:52:33;17.34;61.53
72772;SHT30;60894;42.544;1.516;2023-09-18T08:55:00;17.44;62.35
72772;SHT30;60894;42.544;1.516;2023-09-18T08:57:29;17.51;61.47
72772;SHT30;60894;42.544;1.516;2023-09-18T08:59:57;17.58;59.84
72772;SHT30;60894;42.544;1.516;2023-09-18T09:02:26;17.59;60.43
72772;SHT30;60894;42.544;1.516;2023-09-18T09:04:55;17.71;59.31
72772;SHT30;60894;42.544;1.516;2023-09-18T09:07:22;17.85;59.32
72772;SHT30;60894;42.544;1.516;2023-09-18T09:09:49;17.92;57.95
72772;SHT30;60894;42.544;1.516;2023-09-18T09:12:16;17.98;56.96
72772;SHT30;60894;42.544;1.516;2023-09-18T09:15:02;17.90;56.92
72772;SHT30;60894;42.544;1.516;2023-09-18T09:17:29;18.02;56.41
72772;SHT30;60894;42.544;1.516;2023-09-18T09:20:08;18.16;56.10
72772;SHT30;60894;42.544;1.516;2023-09-18T09:22:36;18.26;55.22
72772;SHT30;60894;42.544;1.516;2023-09-18T09:25:03;18.40;54.76
72772;SHT30;60894;42.544;1.516;2023-09-18T09:27:42;18.59;53.22
72772;SHT30;60894;42.544;1.516;2023-09-18T09:30:10;18.40;51.94
72772;SHT30;60894;42.544;1.516;2023-09-18T09:32:37;18.72;52.61
72772;SHT30;60894;42.544;1.516;2023-09-18T09:35:07;18.75;50.95
72772;SHT30;60894;42.544;1.516;2023-09-18T09:37:34;18.84;50.68
72772;SHT30;60894;42.544;1.516;2023-09-18T09:40:03;18.87;52.00
72772;SHT30;60894;42.544;1.516;2023-09-18T09:42:38;18.84;50.96
72772;SHT30;60894;42.544;1.516;2023-09-18T09:45:11;19.04;50.63
72772;SHT30;60894;42.544;1.516;2023-09-18T09:47:38;19.15;50.75
72772;SHT30;60894;42.544;1.516;2023-09-18T09:50:08;19.23;50.30
72772;SHT30;60894;42.544;1.516;2023-09-18T09:52:47;19.16;50.75
72772;SHT30;60894;42.544;1.516;2023-09-18T09:55:19;19.15;50.86
72772;SHT30;60894;42.544;1.516;2023-09-18T09:57:50;19.28;50.59
72772;SHT30;60894;42.544;1.516;2023-09-18T10:00:18;19.21;50.55
72772;SHT30;60894;42.544;1.516;2023-09-18T10:02:57;19.38;49.70
72772;SHT30;60894;42.544;1.516;2023-09-18T10:05:28;19.36;49.58
72772;SHT30;60894;42.544;1.516;2023-09-18T10:08:03;19.48;48.71
72772;SHT30;60894;42.544;1.516;2023-09-18T10:10:33;19.46;48.38
72772;SHT30;60894;42.544;1.516;2023-09-18T10:13:07;19.69;49.95
72772;SHT30;60894;42.544;1.516;2023-09-18T10:15:36;19.84;49.11
72772;SHT30;60894;42.544;1.516;2023-09-18T10:18:17;20.04;49.28
72772;SHT30;60894;42.544;1.516;2023-09-18T10:20:45;20.07;49.50
72772;SHT30;60894;42.544;1.516;2023-09-18T10:23:23;20.28;49.30
72772;SHT30;60894;42.544;1.516;2023-09-18T10:25:55;20.09;48.88
72772;SHT30;60894;42.544;1.516;2023-09-18T10:28:28;20.21;49.15
72772;SHT30;60894;42.544;1.516;2023-09-18T10:30:57;19.93;50.15
72772;SHT30;60894;42.544;1.516;2023-09-18T10:33:25;19.98;49.85
72772;SHT30;60894;42.544;1.516;2023-09-18T10:35:54;20.01;49.40
72772;SHT30;60894;42.544;1.516;2023-09-18T10:38:25;20.10;49.61
72772;SHT30;60894;42.544;1.516;2023-09-18T10:40:54;19.94;50.41
72772;SHT30;60894;42.544;1.516;2023-09-18T10:43:22;19.89;50.30
72772;SHT30;60894;42.544;1.516;2023-09-18T10:45:49;20.21;50.31
72772;SHT30;60894;42.544;1.516;2023-09-18T10:48:17;20.34;49.02
72772;SHT30;60894;42.544;1.516;2023-09-18T10:50:45;20.38;49.18
72772;SHT30;60894;42.544;1.516;2023-09-18T10:53:12;20.47;49.55
72772;SHT30;60894;42.544;1.516;2023-09-18T10:55:42;20.14;50.70
72772;SHT30;60894;42.544;1.516;2023-09-18T10:58:09;20.34;50.74
72772;SHT30;60894;42.544;1.516;2023-09-18T11:00:36;20.52;50.22
72772;SHT30;60894;42.544;1.516;2023-09-18T11:03:12;20.58;49.49
72772;SHT30;60894;42.544;1.516;2023-09-18T11:05:40;20.40;50.20
72772;SHT30;60894;42.544;1.516;2023-09-18T11:08:27;20.44;51.08
72772;SHT30;60894;42.544;1.516;2023-09-18T11:11:03;20.44;50.98
72772;SHT30;60894;42.544;1.516;2023-09-18T11:13:40;20.32;51.17
72772;SHT30;60894;42.544;1.516;2023-09-18T11:16:17;20.55;50.63
72772;SHT30;60894;42.544;1.516;2023-09-18T11:18:50;20.37;50.96
72772;SHT30;60894;42.544;1.516;2023-09-18T11:21:23;20.28;50.59
72772;SHT30;60894;42.544;1.516;2023-09-18T11:23:58;20.20;50.54
72772;SHT30;60894;42.544;1.516;2023-09-18T11:26:30;20.35;51.08
72772;SHT30;60894;42.544;1.516;2023-09-18T11:28:59;20.68;50.02
72772;SHT30;60894;42.544;1.516;2023-09-18T11:31:43;20.56;50.33
72772;SHT30;60894;42.544;1.516;2023-09-18T11:34:15;20.78;50.13
72772;SHT30;60894;42.544;1.516;2023-09-18T11:36:42;20.78;50.22
72772;SHT30;60894;42.544;1.516;2023-09-18T11:39:09;20.73;50.08
72772;SHT30;60894;42.544;1.516;2023-09-18T11:41:39;20.93;49.20
72772;SHT30;60894;42.544;1.516;2023-09-18T11:44:31;21.12;48.61
72772;SHT30;60894;42.544;1.516;2023-09-18T11:46:58;20.91;48.20
72772;SHT30;60894;42.544;1.516;2023-09-18T11:49:26;20.67;48.89
72772;SHT30;60894;42.544;1.516;2023-09-18T11:51:54;20.81;48.52
72772;SHT30;60894;42.544;1.516;2023-09-18T11:54:21;21.07;47.61
72772;SHT30;60894;42.544;1.516;2023-09-18T11:56:50;20.78;47.14
72772;SHT30;60894;42.544;1.516;2023-09-18T11:59:17;20.65;47.69
72772;SHT30;60894;42.544;1.516;2023-09-18T12:01:52;20.78;47.66
72772;SHT30;60894;42.544;1.516;2023-09-18T12:04:27;21.02;46.88
72772;SHT30;60894;42.544;1.516;2023-09-18T12:06:54;21.24;45.73
72772;SHT30;60894;42.544;1.516;2023-09-18T12:09:21;21.14;45.00
72772;SHT30;60894;42.544;1.516;2023-09-18T12:11:49;20.96;45.06
72772;SHT30;60894;42.544;1.516;2023-09-18T12:14:19;20.78;45.90
72772;SHT30;60894;42.544;1.516;2023-09-18T12:16:47;20.76;45.19
72772;SHT30;60894;42.544;1.516;2023-09-18T12:19:16;20.82;44.12
72772;SHT30;60894;42.544;1.516;2023-09-18T12:21:46;20.89;44.61
72772;SHT30;60894;42.544;1.516;2023-09-18T12:24:14;21.19;43.83
72772;SHT30;60894;42.544;1.516;2023-09-18T12:26:42;21.26;43.41
72772;SHT30;60894;42.544;1.516;2023-09-18T12:29:11;21.37;42.48
72772;SHT30;60894;42.544;1.516;2023-09-18T12:31:38;21.64;42.06
72772;SHT30;60894;42.544;1.516;2023-09-18T12:34:14;21.87;40.94
72772;SHT30;60894;42.544;1.516;2023-09-18T12:36:42;22.38;40.37
72772;SHT30;60894;42.544;1.516;2023-09-18T12:39:09;22.57;38.20
72772;SHT30;60894;42.544;1.516;2023-09-18T12:41:37;22.63;38.30
72772;SHT30;60894;42.544;1.516;2023-09-18T12:44:05;22.62;37.75
72772;SHT30;60894;42.544;1.516;2023-09-18T12:46:34;22.94;38.14
72772;SHT30;60894;42.544;1.516;2023-09-18T12:49:15;22.90;36.66
72772;SHT30;60894;42.544;1.516;2023-09-18T12:51:42;22.87;37.30
72772;SHT30;60894;42.544;1.516;2023-09-18T12:54:12;22.93;37.19
72772;SHT30;60894;42.544;1.516;2023-09-18T12:56:42;23.28;36.21
72772;SHT30;60894;42.544;1.516;2023-09-18T12:59:09;23.18;36.12
72772;SHT30;60894;42.544;1.516;2023-09-18T13:01:40;23.62;35.26
72772;SHT30;60894;42.544;1.516;2023-09-18T13:04:12;23.81;35.88
72772;SHT30;60894;42.544;1.516;2023-09-18T13:06:39;23.75;35.36
72772;SHT30;60894;42.544;1.516;2023-09-18T13:09:16;24.32;35.04
72772;SHT30;60894;42.544;1.516;2023-09-18T13:11:53;23.82;35.24
72772;SHT30;60894;42.544;1.516;2023-09-18T13:14:20;23.93;35.25
72772;SHT30;60894;42.544;1.516;2023-09-18T13:16:49;23.81;35.23
72772;SHT30;60894;42.544;1.516;2023-09-18T13:19:17;24.01;35.39
72772;SHT30;60894;42.544;1.516;2023-09-18T13:21:47;24.24;35.01
72772;SHT30;60894;42.544;1.516;2023-09-18T13:24:25;24.59;35.41
72772;SHT30;60894;42.544;1.516;2023-09-18T13:26:53;24.36;34.87
72772;SHT30;60894;42.544;1.516;2023-09-18T13:29:20;24.60;34.12
72772;SHT30;60894;42.544;1.516;2023-09-18T13:31:49;24.60;34.38
72772;SHT30;60894;42.544;1.516;2023-09-18T13:34:16;24.68;34.26
72772;SHT30;60894;42.544;1.516;2023-09-18T13:36:43;24.60;34.21
72772;SHT30;60894;42.544;1.516;2023-09-18T13:39:09;24.34;34.28
72772;SHT30;60894;42.544;1.516;2023-09-18T13:41:36;24.24;34.52
72772;SHT30;60894;42.544;1.516;2023-09-18T13:44:04;24.44;34.75
72772;SHT30;60894;42.544;1.516;2023-09-18T13:46:31;24.56;34.46
72772;SHT30;60894;42.544;1.516;2023-09-18T13:49:03;24.49;34.87
72772;SHT30;60894;42.544;1.516;2023-09-18T13:51:30;24.36;34.61
72772;SHT30;60894;42.544;1.516;2023-09-18T13:53:57;24.03;35.91
72772;SHT30;60894;42.544;1.516;2023-09-18T13:56:24;23.95;36.18
72772;SHT30;60894;42.544;1.516;2023-09-18T13:58:54;23.73;35.74
72772;SHT30;60894;42.544;1.516;2023-09-18T14:01:22;23.95;35.92
72772;SHT30;60894;42.544;1.516;2023-09-18T14:03:51;23.89;36.30
72772;SHT30;60894;42.544;1.516;2023-09-18T14:06:20;23.90;36.48
72772;SHT30;60894;42.544;1.516;2023-09-18T14:08:47;23.90;35.71
72772;SHT30;60894;42.544;1.516;2023-09-18T14:11:14;24.08;35.62
72772;SHT30;60894;42.544;1.516;2023-09-18T14:13:41;24.27;35.49
72772;SHT30;60894;42.544;1.516;2023-09-18T14:16:08;24.17;35.67
72772;SHT30;60894;42.544;1.516;2023-09-18T14:18:36;23.99;36.26
72772;SHT30;60894;42.544;1.516;2023-09-18T14:21:03;24.44;35.94
72772;SHT30;60894;42.544;1.516;2023-09-18T14:23:32;24.22;35.55
72772;SHT30;60894;42.544;1.516;2023-09-18T14:26:01;23.54;36.64
72772;SHT30;60894;42.544;1.516;2023-09-18T14:28:28;23.23;36.85
72772;SHT30;60894;42.544;1.516;2023-09-18T14:30:55;23.14;36.93
72772;SHT30;60894;42.544;1.516;2023-09-18T14:33:21;23.01;37.76
72772;SHT30;60894;42.544;1.516;2023-09-18T14:35:49;23.01;37.78
72772;SHT30;60894;42.544;1.516;2023-09-18T14:38:16;22.74;38.02
72772;SHT30;60894;42.544;1.516;2023-09-18T14:40:45;22.83;37.88
72772;SHT30;60894;42.544;1.516;2023-09-18T14:43:12;23.00;37.37
72772;SHT30;60894;42.544;1.516;2023-09-18T14:45:39;23.27;37.37
72772;SHT30;60894;42.544;1.516;2023-09-18T14:48:06;23.52;36.81
72772;SHT30;60894;42.544;1.516;2023-09-18T14:50:33;23.41;37.50
72772;SHT30;60894;42.544;1.516;2023-09-18T14:53:00;23.54;37.59
72772;SHT30;60894;42.544;1.516;2023-09-18T14:55:29;23.52;37.24
72772;SHT30;60894;42.544;1.516;2023-09-18T14:57:57;23.50;37.04
72772;SHT30;60894;42.544;1.516;2023-09-18T15:00:25;23.41;36.87
72772;SHT30;60894;42.544;1.516;2023-09-18T15:02:52;23.25;36.83
72772;SHT30;60894;42.544;1.516;2023-09-18T15:05:18;23.14;36.93
72772;SHT30;60894;42.544;1.516;2023-09-18T15:07:45;23.27;37.05
72772;SHT30;60894;42.544;1.516;2023-09-18T15:10:12;23.35;36.77
72772;SHT30;60894;42.544;1.516;2023-09-18T15:12:39;23.42;36.60
72772;SHT30;60894;42.544;1.516;2023-09-18T15:15:09;23.48;36.64
72772;SHT30;60894;42.544;1.516;2023-09-18T15:17:36;23.42;36.55
72772;SHT30;60894;42.544;1.516;2023-09-18T15:20:05;23.37;36.49
72772;SHT30;60894;42.544;1.516;2023-09-18T15:22:32;23.34;37.16
72772;SHT30;60894;42.544;1.516;2023-09-18T15:24:59;23.28;37.04
72772;SHT30;60894;42.544;1.516;2023-09-18T15:27:27;23.17;37.47
72772;SHT30;60894;42.544;1.516;2023-09-18T15:29:53;22.97;37.68
72772;SHT30;60894;42.544;1.516;2023-09-18T15:32:22;22.77;38.12
72772;SHT30;60894;42.544;1.516;2023-09-18T15:34:49;23.04;37.94
72772;SHT30;60894;42.544;1.516;2023-09-18T15:37:16;22.72;37.77
72772;SHT30;60894;42.544;1.516;2023-09-18T15:39:43;22.62;38.17
72772;SHT30;60894;42.544;1.516;2023-09-18T15:42:11;22.46;38.36